Time;durP1;ratioP1;P1;durP2;ratioP2;P2;SDS_P1;SDS_P2;PMS_P1;PMS_P2;Temp;Humidity;BMP_temperature;BMP_pressure;BME280_temperature;BME280_humidity;BME280_pressure;Samples;Min_cycle;Max_cycle;Signal;HPM_P1;HPM_P2
2023/03/24 00:02:40;;;;;;;;;13.00;13.00;;;;;20.35;35.98;98240.88;6297899;27;96424;-63
2023/03/24 00:05:44;;;;;;;;;15.00;13.00;;;;;20.37;35.62;98225.00;6226903;28;96397;-63
2023/03/24 00:08:47;;;;;;;;;14.00;13.00;;;;;20.41;35.51;98227.94;6221356;28;96227;-63
2023/03/24 00:11:52;;;;;;;;;15.00;15.00;;;;;20.33;35.67;98226.69;6275378;27;98228;-63
2023/03/24 00:14:55;;;;;;;;;14.80;14.80;;;;;20.33;35.86;98229.41;6289144;27;96785;-63
2023/03/24 00:17:58;;;;;;;;;15.00;14.00;;;;;20.33;35.85;98225.91;6218562;28;96379;-63
2023/03/24 00:21:01;;;;;;;;;15.00;14.00;;;;;20.36;35.70;98230.75;6208079;28;96297;-63
2023/03/24 00:24:07;;;;;;;;;15.40;14.40;;;;;20.34;35.51;98228.31;6272987;27;96992;-63
2023/03/24 00:27:14;;;;;;;;;15.60;14.60;;;;;20.24;35.69;98231.19;6286774;27;96321;-63
2023/03/24 00:30:19;;;;;;;;;14.00;13.20;;;;;20.26;35.75;98232.53;6230185;28;96186;-63
2023/03/24 00:33:22;;;;;;;;;14.60;14.00;;;;;20.23;35.87;98224.91;6299767;27;96513;-62
2023/03/24 00:36:28;;;;;;;;;14.20;14.20;;;;;20.17;35.50;98222.56;6284615;27;98710;-63
2023/03/24 00:39:32;;;;;;;;;13.20;12.20;;;;;20.17;35.65;98214.38;6273734;27;96391;-61
2023/03/24 00:42:37;;;;;;;;;14.40;13.40;;;;;20.24;35.95;98220.25;6272685;27;96416;-63
2023/03/24 00:45:45;;;;;;;;;12.00;12.00;;;;;20.25;35.67;98216.41;6205423;28;96341;-61
2023/03/24 00:48:50;;;;;;;;;15.00;14.00;;;;;20.26;35.92;98218.84;6297069;27;96297;-63
2023/03/24 00:51:53;;;;;;;;;12.20;12.20;;;;;20.26;35.91;98210.63;6218928;28;96522;-62
2023/03/24 00:54:57;;;;;;;;;11.80;11.80;;;;;20.25;35.57;98211.75;6273437;27;97305;-63
2023/03/24 00:58:02;;;;;;;;;13.60;13.00;;;;;20.24;36.07;98203.81;6273688;27;96253;-63
2023/03/24 01:01:06;;;;;;;;;13.40;12.00;;;;;20.16;35.78;98186.19;6204352;28;96462;-63
2023/03/24 01:04:10;;;;;;;;;11.40;11.00;;;;;20.25;35.94;98191.75;6206497;28;96518;-63
2023/03/24 01:07:17;;;;;;;;;13.80;12.80;;;;;20.21;35.64;98201.69;6296219;27;96752;-63
2023/03/24 01:10:24;;;;;;;;;12.40;12.40;;;;;20.19;36.22;98184.75;6299915;27;96516;-63
2023/03/24 01:13:30;;;;;;;;;14.40;13.40;;;;;20.22;36.00;98186.91;6230219;28;96865;-63
2023/03/24 01:16:34;;;;;;;;;15.33;13.33;;;;;20.21;35.99;98193.47;6231146;28;96312;-63
2023/03/24 01:19:39;;;;;;;;;14.00;14.00;;;;;20.20;35.89;98186.38;6291100;27;96750;-62
2023/03/24 01:22:45;;;;;;;;;14.60;13.20;;;;;20.16;36.10;98190.84;6273350;27;96331;-62
2023/03/24 01:25:49;;;;;;;;;11.00;11.00;;;;;20.09;36.39;98188.47;6206485;28;96789;-63
2023/03/24 01:28:53;;;;;;;;;14.00;14.00;;;;;20.02;36.34;98181.78;6285747;27;96263;-63
2023/03/24 01:31:57;;;;;;;;;11.00;10.80;;;;;20.09;36.39;98190.41;6223266;28;97668;-63
2023/03/24 01:35:00;;;;;;;;;15.00;14.40;;;;;20.01;36.18;98180.97;6276145;27;97281;-62
2023/03/24 01:38:06;;;;;;;;;13.00;13.00;;;;;20.10;36.19;98186.56;6213536;28;96255;-63
2023/03/24 01:41:10;;;;;;;;;12.00;11.00;;;;;20.07;36.27;98179.78;6212734;28;96600;-62
2023/03/24 01:44:27;;;;;;;;;13.25;12.25;;;;;20.10;36.34;98184.63;6298288;27;96998;-63
2023/03/24 01:47:32;;;;;;;;;12.60;12.00;;;;;20.12;35.99;98178.88;6230500;28;96373;-62
2023/03/24 01:50:38;;;;;;;;;13.00;13.00;;;;;20.15;35.90;98178.25;6280637;27;96648;-63
2023/03/24 01:53:45;;;;;;;;;13.60;13.60;;;;;20.14;36.27;98174.72;6272360;27;96410;-61
2023/03/24 01:56:55;;;;;;;;;13.60;13.60;;;;;20.15;36.10;98176.34;6279818;27;96380;-63
2023/03/24 02:00:11;;;;;;;;;13.00;13.00;;;;;20.09;36.39;98165.78;6218565;28;96619;-63
2023/03/24 02:03:21;;;;;;;;;13.60;12.60;;;;;20.10;36.31;98181.09;6229292;28;96307;-62
2023/03/24 02:06:31;;;;;;;;;12.00;12.00;;;;;20.09;36.52;98174.78;6298385;27;96262;-62
2023/03/24 02:09:34;;;;;;;;;10.40;10.40;;;;;20.10;36.63;98173.69;6298436;27;96809;-63
2023/03/24 02:12:38;;;;;;;;;13.50;13.00;;;;;20.12;36.45;98166.00;6229047;28;96220;-62
2023/03/24 02:15:53;;;;;;;;;13.75;13.00;;;;;20.16;36.36;98177.16;6298718;27;96294;-63
2023/03/24 02:19:22;;;;;;;;;15.00;15.00;;;;;20.17;36.57;98165.09;6297575;27;97036;-63
2023/03/24 02:22:45;;;;;;;;;15.40;14.00;;;;;20.17;36.69;98163.19;6276741;27;96468;-63
2023/03/24 02:26:25;;;;;;;;;12.33;12.00;;;;;20.14;36.32;98163.75;6271831;27;97647;-62
2023/03/24 02:30:16;;;;;;;;;11.00;11.00;;;;;20.12;36.78;98152.31;6205750;28;96487;-62
2023/03/24 02:33:53;;;;;;;;;12.00;11.40;;;;;20.12;36.68;98162.44;6298006;27;96781;-62
2023/03/24 02:37:28;;;;;;;;;15.00;14.60;;;;;20.09;36.65;98152.91;6223784;28;96740;-62
2023/03/24 02:40:44;;;;;;;;;12.00;11.40;;;;;20.08;36.57;98158.69;6274510;27;98283;-59
2023/03/24 02:43:57;;;;;;;;;11.00;10.00;;;;;20.06;36.88;98147.22;6248616;27;98425;-59
2023/03/24 02:47:05;;;;;;;;;11.00;11.00;;;;;20.05;36.65;98143.69;6274960;27;96361;-59
2023/03/24 02:50:16;;;;;;;;;15.40;14.00;;;;;20.05;36.55;98149.16;6267245;27;96326;-59
2023/03/24 02:53:27;;;;;;;;;15.00;12.40;;;;;20.09;36.86;98154.81;6267768;27;96947;-59
2023/03/24 02:56:58;;;;;;;;;13.00;13.00;;;;;20.08;36.74;98145.84;6208171;27;97159;-59
2023/03/24 03:00:31;;;;;;;;;11.00;11.00;;;;;20.12;36.59;98144.13;6184255;27;96396;-59
2023/03/24 03:03:45;;;;;;;;;12.60;11.60;;;;;20.08;36.84;98136.81;6187170;28;96341;-59
2023/03/24 03:06:54;;;;;;;;;11.75;11.00;;;;;20.06;36.93;98139.84;6234258;27;96211;-59
2023/03/24 03:10:02;;;;;;;;;12.20;11.00;;;;;20.04;36.58;98133.03;6274440;27;97269;-59
2023/03/24 03:13:14;;;;;;;;;11.00;10.00;;;;;20.06;36.55;98131.63;6278654;27;96422;-59
2023/03/24 03:16:24;;;;;;;;;14.40;13.40;;;;;20.12;36.81;98124.16;6279358;27;96523;-59
2023/03/24 03:19:33;;;;;;;;;12.00;11.40;;;;;20.17;36.33;98110.38;6279761;27;96276;-59
2023/03/24 03:22:42;;;;;;;;;12.00;12.00;;;;;20.21;36.28;98100.44;6254315;27;96847;-59
2023/03/24 03:25:50;;;;;;;;;11.40;11.40;;;;;20.22;36.39;98113.81;6197340;28;96264;-59
2023/03/24 03:28:59;;;;;;;;;12.00;12.00;;;;;20.21;36.42;98112.19;6212200;28;96432;-59
2023/03/24 03:32:09;;;;;;;;;11.20;11.00;;;;;20.29;36.45;98119.69;6279454;27;96565;-59
2023/03/24 03:35:18;;;;;;;;;11.00;11.00;;;;;20.30;36.22;98123.25;6279172;27;96282;-59
2023/03/24 03:38:29;;;;;;;;;12.00;12.00;;;;;20.33;36.54;98116.41;6270574;27;96873;-59
2023/03/24 03:41:32;;;;;;;;;10.00;9.20;;;;;20.30;36.06;98123.25;6197781;28;96410;-59
2023/03/24 03:44:37;;;;;;;;;13.40;12.40;;;;;20.31;36.28;98120.25;6261083;27;98372;-59
2023/03/24 03:47:41;;;;;;;;;11.00;11.00;;;;;20.27;36.54;98118.38;6277404;27;97024;-60
2023/03/24 03:50:45;;;;;;;;;13.40;12.00;;;;;20.24;36.24;98113.50;6275437;27;96421;-60
2023/03/24 03:53:52;;;;;;;;;13.00;11.00;;;;;20.22;36.21;98113.81;6274600;27;96490;-59
2023/03/24 03:56:56;;;;;;;;;12.00;12.00;;;;;20.27;36.56;98116.47;6279022;27;96569;-59
2023/03/24 04:00:08;;;;;;;;;12.40;11.40;;;;;20.22;36.42;98102.88;6180816;27;96771;-59
2023/03/24 04:03:49;;;;;;;;;13.60;11.20;;;;;20.26;36.52;98097.59;6206640;28;96425;-59
2023/03/24 04:07:06;;;;;;;;;12.50;11.50;;;;;20.25;36.14;98106.91;6266274;27;96455;-59
2023/03/24 04:10:22;;;;;;;;;12.00;12.00;;;;;20.25;36.19;98087.75;6255991;27;97355;-59
2023/03/24 04:13:37;;;;;;;;;11.80;10.80;;;;;20.28;36.20;98093.44;6265012;27;96713;-59
2023/03/24 04:17:04;;;;;;;;;11.00;10.00;;;;;20.28;36.42;98100.84;6258400;27;96495;-59
2023/03/24 04:20:21;;;;;;;;;12.00;11.00;;;;;20.19;36.28;98088.97;6274219;27;97500;-59
2023/03/24 04:23:32;;;;;;;;;10.25;10.00;;;;;20.16;36.66;98073.16;6265027;27;96600;-59
2023/03/24 04:26:44;;;;;;;;;11.00;11.00;;;;;20.20;36.42;98093.31;6282415;27;96672;-59
2023/03/24 04:29:58;;;;;;;;;12.00;11.00;;;;;20.24;36.56;98099.81;6257941;27;96724;-59
2023/03/24 04:33:16;;;;;;;;;12.00;12.00;;;;;20.24;36.79;98097.06;6272215;27;96887;-59
2023/03/24 04:36:30;;;;;;;;;12.00;10.40;;;;;20.25;36.60;98098.69;6266122;27;96388;-59
2023/03/24 04:40:06;;;;;;;;;10.60;10.20;;;;;20.25;36.77;98099.53;6271613;27;98367;-59
2023/03/24 04:43:13;;;;;;;;;11.00;10.50;;;;;20.27;36.45;98101.97;6244275;27;98568;-59
2023/03/24 04:46:17;;;;;;;;;10.50;10.00;;;;;20.27;37.13;98104.69;6257384;27;96379;-59
2023/03/24 04:49:37;;;;;;;;;11.50;10.50;;;;;20.22;37.04;98110.28;6276409;27;96396;-59
2023/03/24 04:52:42;;;;;;;;;11.00;9.60;;;;;20.21;37.41;98108.63;6195080;28;96309;-59
2023/03/24 04:56:00;;;;;;;;;12.00;11.00;;;;;20.16;37.26;98108.75;6254452;27;96339;-59
2023/03/24 04:59:24;;;;;;;;;13.40;12.40;;;;;20.12;37.86;98110.47;6202696;27;96782;-59
2023/03/24 05:02:28;;;;;;;;;12.20;11.20;;;;;20.10;37.20;98118.97;6262694;27;96769;-59
2023/03/24 05:05:42;;;;;;;;;11.00;10.00;;;;;20.09;38.38;98122.00;6262201;27;96378;-59
2023/03/24 05:08:46;;;;;;;;;14.75;13.50;;;;;20.09;38.50;98132.94;6263687;27;96761;-59
2023/03/24 05:11:50;;;;;;;;;11.80;10.80;;;;;20.03;38.98;98124.03;6268363;27;96902;-59
2023/03/24 05:14:54;;;;;;;;;14.00;13.00;;;;;20.01;39.65;98128.97;6264071;27;96475;-60
2023/03/24 05:17:59;;;;;;;;;14.60;13.60;;;;;19.96;39.29;98131.00;6256810;27;96287;-59
2023/03/24 05:21:06;;;;;;;;;13.20;13.20;;;;;19.92;40.02;98130.78;6259821;27;97233;-60
2023/03/24 05:24:12;;;;;;;;;13.80;13.40;;;;;19.88;40.38;98130.59;6251676;27;98488;-59
2023/03/24 05:27:16;;;;;;;;;11.80;11.80;;;;;19.84;41.27;98135.00;6268107;27;96242;-59
2023/03/24 05:30:19;;;;;;;;;11.00;11.00;;;;;19.81;41.29;98124.69;6272158;27;97040;-59
2023/03/24 05:33:26;;;;;;;;;12.00;12.00;;;;;19.78;41.28;98136.22;6252917;27;96278;-59
2023/03/24 05:36:31;;;;;;;;;13.25;12.50;;;;;19.77;42.18;98126.41;6264728;27;96661;-59
2023/03/24 05:39:35;;;;;;;;;12.20;12.00;;;;;19.74;42.00;98135.19;6255826;27;96678;-60
2023/03/24 05:42:43;;;;;;;;;15.00;13.25;;;;;19.71;42.71;98133.06;6275166;27;96849;-59
2023/03/24 05:45:48;;;;;;;;;14.75;14.75;;;;;19.69;42.73;98137.22;6310015;27;96801;-60
2023/03/24 05:49:01;;;;;;;;;12.20;12.20;;;;;19.67;42.91;98139.44;6305830;27;96800;-61
2023/03/24 05:52:11;;;;;;;;;13.00;12.60;;;;;19.64;43.43;98138.13;6305835;27;97162;-60
2023/03/24 05:55:18;;;;;;;;;15.60;13.00;;;;;19.61;44.13;98135.97;6278283;27;96732;-60
2023/03/24 05:58:24;;;;;;;;;13.60;13.40;;;;;19.59;43.79;98140.13;6301575;27;96557;-60
2023/03/24 06:01:31;;;;;;;;;16.25;15.25;;;;;19.57;45.38;98145.06;6309307;27;96482;-60
2023/03/24 06:04:47;;;;;;;;;15.00;13.60;;;;;19.55;45.03;98148.06;6305675;27;97376;-60
2023/03/24 06:07:57;;;;;;;;;12.20;11.20;;;;;19.53;46.04;98155.78;6309655;27;96298;-60
2023/03/24 06:11:05;;;;;;;;;11.20;11.20;;;;;19.54;46.65;98151.13;6303894;27;96345;-59
2023/03/24 06:14:19;;;;;;;;;14.80;13.40;;;;;19.54;45.83;98151.94;6322423;27;96496;-60
2023/03/24 06:17:36;;;;;;;;;16.00;14.00;;;;;19.56;46.07;98148.91;6288887;27;96851;-60
2023/03/24 06:20:50;;;;;;;;;14.00;13.00;;;;;19.53;45.06;98157.69;6304124;27;96596;-60
2023/03/24 06:24:02;;;;;;;;;14.00;13.00;;;;;19.55;44.49;98158.22;6301053;27;96315;-59
2023/03/24 06:27:07;;;;;;;;;14.00;14.00;;;;;19.58;44.78;98160.34;6294605;27;96337;-60
2023/03/24 06:30:12;;;;;;;;;11.40;11.00;;;;;19.62;44.98;98147.72;6309259;27;97609;-59
2023/03/24 06:33:16;;;;;;;;;13.00;12.00;;;;;19.58;45.64;98152.97;6306969;27;97000;-61
2023/03/24 06:36:22;;;;;;;;;12.00;12.00;;;;;19.52;45.27;98153.34;6302588;27;96308;-60
2023/03/24 06:39:27;;;;;;;;;12.00;10.00;;;;;19.52;45.64;98151.41;6309165;27;96593;-60
2023/03/24 06:42:33;;;;;;;;;11.75;11.00;;;;;19.48;45.95;98152.31;6310531;27;96409;-61
2023/03/24 06:45:38;;;;;;;;;11.40;11.00;;;;;19.41;46.56;98152.66;6305377;27;96575;-61
2023/03/24 06:48:45;;;;;;;;;12.00;12.00;;;;;19.31;47.08;98141.88;6296083;27;97502;-61
2023/03/24 06:51:48;;;;;;;;;13.60;12.60;;;;;19.23;47.14;98139.81;6308642;27;96844;-60
2023/03/24 06:54:54;;;;;;;;;10.40;10.00;;;;;19.21;47.18;98140.09;6292898;27;97268;-60
2023/03/24 06:57:57;;;;;;;;;12.00;11.60;;;;;19.11;47.38;98129.31;6304784;27;97572;-60
2023/03/24 07:01:14;;;;;;;;;12.00;12.00;;;;;19.13;47.50;98137.22;6305539;27;95919;-60
2023/03/24 07:04:35;;;;;;;;;13.00;12.67;;;;;19.08;47.04;98137.28;6310897;27;96388;-60
2023/03/24 07:07:59;;;;;;;;;12.20;12.00;;;;;18.95;47.17;98133.38;6310914;27;96943;-60
2023/03/24 07:11:13;;;;;;;;;12.00;12.00;;;;;19.03;47.14;98127.25;6286881;27;97246;-60
2023/03/24 07:14:25;;;;;;;;;13.00;13.00;;;;;18.96;47.15;98138.53;6285857;27;96919;-60
2023/03/24 07:17:30;;;;;;;;;13.60;13.60;;;;;19.09;46.87;98133.47;6295678;27;96181;-61
2023/03/24 07:20:51;;;;;;;;;11.00;10.00;;;;;19.34;46.24;98131.16;6298390;27;97241;-60
2023/03/24 07:23:56;;;;;;;;;11.80;10.80;;;;;19.53;45.68;98125.72;6284895;27;96466;-60
2023/03/24 07:27:08;;;;;;;;;14.75;12.75;;;;;19.59;45.73;98104.56;6308515;27;97472;-61
2023/03/24 07:30:14;;;;;;;;;12.00;11.00;;;;;19.84;45.94;98123.28;6310921;27;96305;-61
2023/03/24 07:33:20;;;;;;;;;12.00;11.00;;;;;19.96;44.66;98128.25;6297727;27;96925;-61
2023/03/24 07:36:23;;;;;;;;;12.00;12.00;;;;;20.08;44.88;98123.94;6290849;27;98348;-61
2023/03/24 07:39:27;;;;;;;;;11.25;11.25;;;;;20.26;44.30;98114.03;6305534;27;96268;-61
2023/03/24 07:42:32;;;;;;;;;15.60;15.00;;;;;20.40;43.64;98114.06;6291795;27;96529;-61
2023/03/24 07:45:54;;;;;;;;;11.00;11.00;;;;;20.50;43.62;98113.84;6284289;27;98891;-60
2023/03/24 07:48:57;;;;;;;;;12.80;11.40;;;;;20.58;43.15;98113.13;6290297;27;96751;-61
2023/03/24 07:52:11;;;;;;;;;11.00;10.80;;;;;20.87;42.86;98110.03;6300721;27;96984;-60
2023/03/24 07:55:18;;;;;;;;;10.00;10.00;;;;;20.90;42.68;98103.97;6300623;27;96714;-60
2023/03/24 07:58:30;;;;;;;;;11.25;11.00;;;;;21.20;41.90;98107.97;6289519;27;98413;-61
2023/03/24 08:01:48;;;;;;;;;11.00;10.00;;;;;21.32;41.35;98089.84;6309995;27;96246;-59
2023/03/24 08:05:09;;;;;;;;;12.80;11.00;;;;;21.68;40.14;98094.47;6314022;27;96813;-61
2023/03/24 08:08:23;;;;;;;;;11.00;10.00;;;;;21.98;39.84;98086.28;6312573;27;96958;-60
2023/03/24 08:11:26;;;;;;;;;10.00;10.00;;;;;22.00;39.72;98083.22;6315673;27;96322;-59
2023/03/24 08:14:31;;;;;;;;;10.00;10.00;;;;;22.27;38.95;98072.06;6315322;27;96434;-60
2023/03/24 08:17:35;;;;;;;;;11.00;11.00;;;;;22.47;38.48;98067.91;6312520;27;98371;-60
2023/03/24 08:20:38;;;;;;;;;10.00;10.00;;;;;22.62;37.98;98051.00;6311505;27;96590;-60
2023/03/24 08:23:42;;;;;;;;;11.20;11.00;;;;;22.70;37.75;98054.88;6305551;27;96442;-60
2023/03/24 08:26:46;;;;;;;;;12.00;11.00;;;;;22.78;37.36;98063.16;6312031;27;96583;-60
2023/03/24 08:29:51;;;;;;;;;12.40;11.40;;;;;22.73;37.29;98040.50;6310781;27;96434;-60
2023/03/24 08:32:58;;;;;;;;;12.00;12.00;;;;;23.20;37.18;98047.84;6310499;27;96867;-60
2023/03/24 08:36:01;;;;;;;;;11.00;10.00;;;;;23.66;36.00;98043.56;6314290;27;96491;-60
2023/03/24 08:39:08;;;;;;;;;11.25;10.25;;;;;23.83;35.13;98046.31;6313853;27;96736;-60
2023/03/24 08:42:11;;;;;;;;;11.00;9.00;;;;;24.14;34.93;98052.31;6314063;27;96494;-60
2023/03/24 08:45:19;;;;;;;;;12.00;10.80;;;;;24.45;34.61;98040.22;6243093;27;96363;-60
2023/03/24 08:48:23;;;;;;;;;11.80;10.80;;;;;24.88;33.97;98043.53;6209380;28;96338;-60
2023/03/24 08:51:27;;;;;;;;;9.00;9.00;;;;;24.77;33.90;98025.78;6200792;28;96252;-60
2023/03/24 08:54:30;;;;;;;;;11.40;10.00;;;;;24.83;33.20;98040.13;6184430;28;96944;-60
2023/03/24 08:57:34;;;;;;;;;10.00;10.00;;;;;24.86;32.09;98034.78;6183111;28;96290;-59
2023/03/24 09:00:38;;;;;;;;;11.80;11.00;;;;;25.19;32.22;98026.59;6184179;28;97267;-60
2023/03/24 09:03:43;;;;;;;;;9.00;8.00;;;;;25.73;31.86;98019.13;6184062;28;96541;-61
2023/03/24 09:06:46;;;;;;;;;10.00;10.00;;;;;25.86;30.72;98023.50;6184118;28;97511;-60
2023/03/24 09:09:50;;;;;;;;;9.00;9.00;;;;;25.67;31.22;98011.38;6250237;27;96609;-60
2023/03/24 09:12:53;;;;;;;;;10.00;9.00;;;;;25.50;31.16;98014.31;6192411;28;96332;-60
2023/03/24 09:16:01;;;;;;;;;9.00;9.00;;;;;25.46;31.63;98011.44;6275909;27;99405;-60
2023/03/24 09:19:04;;;;;;;;;9.20;9.00;;;;;25.42;31.06;98008.53;6276047;27;97109;-60
2023/03/24 09:22:07;;;;;;;;;8.00;8.00;;;;;25.51;31.58;98002.13;6207432;28;96381;-60
2023/03/24 09:25:13;;;;;;;;;9.00;9.00;;;;;25.73;30.74;97997.03;6275311;27;98906;-60
2023/03/24 09:28:17;;;;;;;;;9.00;9.00;;;;;26.11;30.30;97998.66;6273988;27;96666;-60
2023/03/24 09:31:21;;;;;;;;;9.60;9.60;;;;;26.62;29.72;97989.69;6207443;28;96549;-60
2023/03/24 09:34:25;;;;;;;;;8.00;7.00;;;;;27.38;29.24;97977.72;6210952;28;97574;-63
2023/03/24 09:37:29;;;;;;;;;9.00;9.00;;;;;28.04;28.26;97973.53;6288096;27;98626;-64
2023/03/24 09:40:37;;;;;;;;;9.00;8.67;;;;;28.64;26.47;97967.44;6222464;28;96407;-64
2023/03/24 09:43:44;;;;;;;;;7.00;7.00;;;;;28.99;26.80;97958.31;6221202;28;96313;-64
2023/03/24 09:46:52;;;;;;;;;9.00;8.80;;;;;29.09;25.66;97969.63;6297006;27;96466;-64
2023/03/24 09:50:00;;;;;;;;;9.00;9.00;;;;;29.66;25.08;97960.44;6294004;27;96695;-63
2023/03/24 09:53:09;;;;;;;;;10.00;9.60;;;;;29.79;24.84;97957.50;6213648;28;96230;-64
2023/03/24 09:56:16;;;;;;;;;7.00;7.00;;;;;30.08;24.70;97951.28;6216108;28;96457;-64
2023/03/24 09:59:21;;;;;;;;;7.00;7.00;;;;;30.56;24.16;97949.66;6292754;27;96847;-64
2023/03/24 10:02:29;;;;;;;;;8.20;8.00;;;;;30.32;24.43;97933.38;6295755;27;96344;-63
2023/03/24 10:05:37;;;;;;;;;9.00;9.00;;;;;30.57;23.76;97931.78;6292861;27;96752;-64
2023/03/24 10:08:43;;;;;;;;;9.00;8.40;;;;;30.33;23.58;97934.97;6224065;28;96335;-64
2023/03/24 10:11:53;;;;;;;;;9.00;8.00;;;;;30.31;23.76;97915.06;6292274;27;96790;-64
2023/03/24 10:15:09;;;;;;;;;10.00;9.00;;;;;30.58;23.29;97925.03;6291591;27;96266;-64
2023/03/24 10:18:31;;;;;;;;;10.25;10.00;;;;;31.24;23.18;97920.72;6287725;27;96616;-65
2023/03/24 10:21:36;;;;;;;;;8.60;8.00;;;;;31.98;22.37;97932.59;6219405;28;96330;-64
2023/03/24 10:24:47;;;;;;;;;8.60;8.00;;;;;32.13;21.42;97914.03;6220487;28;96278;-65
2023/03/24 10:27:56;;;;;;;;;7.00;7.00;;;;;32.39;21.15;97913.03;6284894;27;97217;-66
2023/03/24 10:31:04;;;;;;;;;8.00;7.00;;;;;32.65;20.27;97905.22;6197196;28;96304;-65
2023/03/24 10:34:13;;;;;;;;;7.00;7.00;;;;;32.95;20.17;97904.94;6195534;28;96270;-65
2023/03/24 10:37:16;;;;;;;;;8.00;8.00;;;;;33.00;20.07;97903.75;6197025;28;96298;-64
2023/03/24 10:40:23;;;;;;;;;8.00;8.00;;;;;32.59;20.71;97895.59;6199396;28;96799;-64
2023/03/24 10:43:27;;;;;;;;;9.50;9.50;;;;;32.93;19.79;97887.00;6281709;27;96429;-64
2023/03/24 10:46:32;;;;;;;;;9.00;7.80;;;;;33.39;19.61;97887.94;6203148;28;97109;-64
2023/03/24 10:49:36;;;;;;;;;6.00;6.00;;;;;33.79;19.07;97869.25;6195807;28;96411;-64
2023/03/24 10:52:41;;;;;;;;;7.00;6.40;;;;;34.23;18.54;97891.22;6195830;28;96546;-64
2023/03/24 10:55:44;;;;;;;;;9.00;8.00;;;;;34.37;19.01;97885.59;6204055;28;96475;-64
2023/03/24 10:58:48;;;;;;;;;8.00;7.00;;;;;34.16;18.72;97874.41;6216924;28;96299;-65
2023/03/24 11:01:57;;;;;;;;;8.60;8.00;;;;;34.13;19.04;97881.59;6221005;28;96249;-64
2023/03/24 11:05:14;;;;;;;;;6.00;6.00;;;;;34.19;18.52;97874.44;6220365;28;96391;-65
2023/03/24 11:08:27;;;;;;;;;8.00;8.00;;;;;34.19;18.49;97866.03;6290412;27;96253;-64
2023/03/24 11:11:32;;;;;;;;;8.00;8.00;;;;;34.14;18.60;97879.59;6220870;28;96723;-64
2023/03/24 11:14:44;;;;;;;;;7.00;7.00;;;;;34.00;18.35;97866.44;6214939;28;96801;-63
2023/03/24 11:17:53;;;;;;;;;7.00;7.00;;;;;33.78;18.83;97862.06;6212233;28;98725;-65
2023/03/24 11:21:03;;;;;;;;;7.20;7.00;;;;;33.79;19.35;97855.28;6201876;28;96139;-64
2023/03/24 11:24:11;;;;;;;;;10.00;9.40;;;;;33.77;18.99;97846.50;6271875;27;99048;-64
2023/03/24 11:27:17;;;;;;;;;7.00;6.00;;;;;33.75;18.25;97841.28;6206525;28;96451;-64
2023/03/24 11:30:20;;;;;;;;;6.50;5.50;;;;;33.56;17.93;97838.88;6209401;28;96923;-64
2023/03/24 11:33:28;;;;;;;;;5.20;5.00;;;;;33.31;17.82;97836.06;6225384;28;96876;-64
2023/03/24 11:36:48;;;;;;;;;6.00;6.00;;;;;32.77;17.84;97834.31;6287468;27;96417;-62
2023/03/24 11:40:16;;;;;;;;;6.80;5.80;;;;;32.05;17.75;97835.09;6284794;27;96655;-64
2023/03/24 11:43:21;;;;;;;;;6.00;6.00;;;;;31.76;18.71;97816.56;6273349;27;97125;-64
2023/03/24 11:46:25;;;;;;;;;9.00;8.00;;;;;31.43;18.56;97823.03;6204920;28;96685;-64
2023/03/24 11:49:31;;;;;;;;;7.40;7.40;;;;;31.01;18.57;97817.03;6205223;28;96298;-64
2023/03/24 11:52:42;;;;;;;;;7.00;7.00;;;;;30.80;19.27;97804.47;6207003;28;96377;-64
2023/03/24 11:55:54;;;;;;;;;5.33;5.33;;;;;30.65;18.72;97796.34;6284374;27;96074;-64
2023/03/24 11:59:07;;;;;;;;;7.00;6.50;;;;;30.59;18.69;97800.66;6315928;27;96612;-63
2023/03/24 12:02:20;;;;;;;;;6.00;5.00;;;;;30.27;18.33;97786.31;6302522;27;98936;-63
2023/03/24 12:05:34;;;;;;;;;6.00;6.00;;;;;29.95;19.47;97788.69;6290439;27;96688;-63
2023/03/24 12:08:55;;;;;;;;;4.00;3.20;;;;;30.00;19.53;97793.94;6298745;27;97110;-63
2023/03/24 12:12:17;;;;;;;;;5.00;4.00;;;;;30.13;19.37;97795.28;6251625;27;96295;-64
2023/03/24 12:15:32;;;;;;;;;4.80;4.20;;;;;30.04;19.60;97794.78;6298072;27;97389;-63
2023/03/24 12:18:55;;;;;;;;;6.67;6.67;;;;;29.88;19.57;97788.53;6295072;27;98341;-64
2023/03/24 12:22:09;;;;;;;;;5.00;5.00;;;;;29.26;19.64;97785.97;6232662;27;96264;-62
2023/03/24 12:25:38;;;;;;;;;5.00;5.00;;;;;29.12;20.23;97790.47;6303534;27;96716;-63
2023/03/24 12:28:54;;;;;;;;;6.00;6.00;;;;;28.86;20.48;97785.66;6302702;27;98331;-62
2023/03/24 12:32:22;;;;;;;;;5.00;4.75;;;;;28.70;20.48;97779.38;6233536;28;96852;-63
2023/03/24 12:35:44;;;;;;;;;5.80;5.80;;;;;28.59;20.48;97781.91;6227772;28;96821;-62
2023/03/24 12:39:01;;;;;;;;;5.00;5.00;;;;;28.32;20.97;97791.28;6302392;27;96439;-62
2023/03/24 12:42:11;;;;;;;;;8.00;7.00;;;;;28.11;21.49;97779.72;6234121;27;96397;-62
2023/03/24 12:45:36;;;;;;;;;5.00;5.00;;;;;27.80;21.87;97767.59;6334740;27;96310;-62
2023/03/24 12:49:14;;;;;;;;;4.00;4.00;;;;;27.77;21.77;97762.75;6332802;27;96209;-62
2023/03/24 12:52:31;;;;;;;;;5.60;5.00;;;;;27.69;22.27;97751.88;6326609;27;97389;-62
2023/03/24 12:55:42;;;;;;;;;5.00;5.00;;;;;27.76;22.70;97763.91;6328561;27;96457;-62
2023/03/24 12:58:50;;;;;;;;;5.20;5.20;;;;;28.02;22.60;97764.09;6345496;27;96233;-62
2023/03/24 13:01:59;;;;;;;;;4.25;4.25;;;;;28.27;21.67;97750.00;6333512;27;96550;-63
2023/03/24 13:05:07;;;;;;;;;5.00;5.00;;;;;28.31;21.73;97757.22;6329809;27;96387;-62
2023/03/24 13:08:16;;;;;;;;;5.00;4.00;;;;;28.24;21.52;97748.78;6341951;27;96226;-63
2023/03/24 13:11:29;;;;;;;;;4.80;4.40;;;;;28.19;21.91;97742.72;6327223;27;96849;-62
2023/03/24 13:14:49;;;;;;;;;7.00;6.50;;;;;28.12;21.84;97742.56;6324314;27;97570;-62
2023/03/24 13:18:03;;;;;;;;;5.80;5.80;;;;;27.78;21.74;97744.19;6329779;27;96784;-63
2023/03/24 13:21:13;;;;;;;;;6.00;5.60;;;;;27.65;22.09;97743.50;6341778;27;96275;-62
2023/03/24 13:24:19;;;;;;;;;5.00;5.00;;;;;27.44;22.28;97734.66;6335393;27;97139;-63
2023/03/24 13:27:25;;;;;;;;;5.00;5.00;;;;;27.22;22.40;97732.56;6340056;27;96246;-63
2023/03/24 13:30:36;;;;;;;;;5.00;5.00;;;;;26.90;22.87;97740.06;6341894;27;96255;-62
2023/03/24 13:33:43;;;;;;;;;5.00;5.00;;;;;26.83;23.22;97737.88;6338568;27;96323;-63
2023/03/24 13:36:50;;;;;;;;;4.00;4.00;;;;;26.68;23.28;97731.16;6330524;27;96515;-63
2023/03/24 13:39:56;;;;;;;;;7.00;7.00;;;;;26.62;23.23;97727.06;6312371;27;96664;-63
2023/03/24 13:43:07;;;;;;;;;5.00;5.00;;;;;26.50;23.25;97743.72;6328828;27;99404;-63
2023/03/24 13:46:13;;;;;;;;;6.00;5.40;;;;;26.42;23.81;97732.81;6331049;27;97046;-63
2023/03/24 13:49:17;;;;;;;;;6.00;5.60;;;;;26.39;23.83;97733.53;6340025;27;96813;-63
2023/03/24 13:52:27;;;;;;;;;5.60;5.60;;;;;26.25;23.87;97729.22;6339042;27;96472;-62
2023/03/24 13:55:36;;;;;;;;;6.60;6.00;;;;;26.23;24.23;97726.00;6339922;27;96251;-63
2023/03/24 13:59:06;;;;;;;;;6.60;6.00;;;;;26.24;24.77;97727.59;6310786;27;96304;-58
2023/03/24 14:02:20;;;;;;;;;6.00;6.00;;;;;26.19;24.49;97722.28;6314373;27;96937;-58
2023/03/24 14:05:34;;;;;;;;;7.00;7.00;;;;;26.21;25.14;97716.41;6312018;27;96639;-58
2023/03/24 14:08:43;;;;;;;;;5.00;5.00;;;;;26.08;24.98;97729.50;6305991;27;97309;-58
2023/03/24 14:12:08;;;;;;;;;5.60;5.00;;;;;26.01;25.22;97714.66;6303626;27;97064;-58
2023/03/24 14:15:20;;;;;;;;;4.00;4.00;;;;;26.05;25.32;97718.31;6301646;27;96568;-60
2023/03/24 14:18:43;;;;;;;;;6.00;5.40;;;;;26.00;25.17;97713.06;6306886;27;96818;-59
2023/03/24 14:21:52;;;;;;;;;7.00;6.00;;;;;25.91;25.54;97715.94;6304415;27;96724;-58
2023/03/24 14:24:59;;;;;;;;;7.00;7.00;;;;;25.78;25.49;97708.88;6305295;27;97620;-59
2023/03/24 14:28:22;;;;;;;;;6.80;6.40;;;;;25.75;25.52;97704.88;6309690;27;96936;-61
2023/03/24 14:31:29;;;;;;;;;8.00;7.80;;;;;25.42;25.70;97693.97;6304211;27;96895;-59
2023/03/24 14:34:36;;;;;;;;;7.00;6.75;;;;;25.38;26.03;97695.81;6310977;27;96548;-59
2023/03/24 14:37:49;;;;;;;;;7.00;6.00;;;;;25.20;26.65;97690.91;6310139;27;96335;-58
2023/03/24 14:40:58;;;;;;;;;7.00;6.00;;;;;25.16;26.25;97682.50;6311279;27;96573;-58
2023/03/24 14:44:01;;;;;;;;;7.40;7.00;;;;;25.11;26.40;97676.44;6293116;27;96344;-59